หน้าหลัก
METAR-TAF:

METAR-TAF

ท่าอากาศยาน :

Cherbourg, ฝรั่งเศส

ละติจูด: 49-39N, ลองจิจูด: 001-28W, ความสูง: 138 ม.

การสังเกตสภาพอากาศปัจจุบัน

รายงานได้ทำขึ้นเมื่อ 28 นาทีที่แล้ว ณ เวลา 17:00 UTC
ลม 19 นอตจากตะวันตก/ตะวันตกเฉียงใต้
อุณหภูมิ 9°C
ความชื้น 81%
ความกดอากาศ 1021 hPa
ทัศนวิสัย 10 กม. หรือมากกว่า
มีเมฆน้อยที่ความสูง 2000 ฟุต
มีเมฆกระจายเป็นบางส่วนที่ความสูง 5200 ฟุต

METAR: LFRC 191700Z AUTO 24019KT 9999 FEW020 SCT052 09/06 Q1021 TEMPO SHRA BKN009 BECMG 24015G25KT

เวลา: 18:28 (17:28 UTC)

การพยากรณ์

รายงานได้ทำขึ้นเมื่อ 3 ชั่วโมงและ 28 นาทีที่แล้ว ณ เวลา 14:00 UTC
การพยากรณ์มีผลตั้งแต่วันที่ 19 ณ เวลา 15 UTC จนถึงวันที่ 19 ณ เวลา 24 UTC
ลม 15 นอตจากตะวันตก/ตะวันตกเฉียงใต้โดยมีลมกระโชกได้ถึง25 นอต
ทัศนวิสัย 10 กม. หรือมากกว่า
มีเมฆเป็นส่วนมากเว้นเป็นระยะที่ความสูง 2500 ฟุต
ความน่าจะเป็น 40% :
ชั่วคราว
ตั้งแต่วันที่ 19 ณ เวลา 15 UTC จนถึงวันที่ 19 ณ เวลา 24 UTC
ทัศนวิสัย: 5000 ม.
มีเมฆเป็นส่วนมากเว้นเป็นระยะที่ความสูง 900 ฟุต
ฝนโปรยปราย

TAF: LFRC 191400Z 1915/1924 24015G25KT 9999 BKN025 PROB40 TEMPO 1915/1924 5000 SHRA BKN009

สังเกตการณ์สภาพอากาศและพยากรณ์อากาศของสนามบินมากกว่า 4000 แห่ง (รายงาน METAR และ TAF).

สถานีที่ดูได้จะแสดงไว้ด้วยจุดสีเหลืองและสีแดงบนแผนที่.

เลื่อนเมาส์ไปเหนือจุดเพื่อดูชื่อสถานี.

แล้วคลิกเพื่อดูสังเกตการณ์และการพยากรณ์สภาพอากาศ.

ในการเปลี่ยนแผนที่: คลิกที่ปุ่มสีเขียวที่มีกากบาทสีดำเพื่อซูมเข้า; ที่ปุ่มสีเขียวที่มีขีดเพื่อซูมออก; หรือที่ลูกศรสีเขียวเพื่อไปยังแผนที่ที่อยู่ติดกัน.


METAR-TAF: